createdAt,value
2017-05-15T00:00:54.336Z,5.47
2017-05-15T00:03:20.975Z,5.05
2017-05-15T00:05:47.590Z,4.67
2017-05-15T00:08:14.287Z,4.28
2017-05-15T00:10:40.900Z,4.38
2017-05-15T00:13:07.534Z,3.97
2017-05-15T00:15:34.163Z,4.38
2017-05-15T00:18:00.775Z,4.42
2017-05-15T00:20:27.429Z,5.07
2017-05-15T00:22:54.052Z,4.27
2017-05-15T00:25:20.661Z,3.60
2017-05-15T00:27:47.297Z,3.57
2017-05-15T00:30:13.916Z,2.97
2017-05-15T00:32:40.527Z,2.98
2017-05-15T00:35:07.139Z,3.10
2017-05-15T00:37:33.771Z,2.55
2017-05-15T00:40:00.384Z,3.27
2017-05-15T00:42:27.019Z,2.70
2017-05-15T00:44:53.640Z,3.78
2017-05-15T00:47:20.256Z,2.78
2017-05-15T00:49:46.911Z,2.75
2017-05-15T00:52:13.537Z,2.98
2017-05-15T00:54:40.173Z,2.98
2017-05-15T00:57:06.795Z,3.20
2017-05-15T00:59:33.438Z,3.80
2017-05-15T01:02:00.075Z,3.37
2017-05-15T01:04:26.712Z,3.63
2017-05-15T01:06:53.327Z,3.33
2017-05-15T01:09:20.080Z,2.50
2017-05-15T01:11:46.794Z,2.52
2017-05-15T01:14:13.424Z,3.20
2017-05-15T01:16:40.080Z,2.88
2017-05-15T01:19:06.715Z,2.72
2017-05-15T01:21:33.363Z,2.10
2017-05-15T01:23:59.976Z,2.43
2017-05-15T01:26:26.583Z,2.70
2017-05-15T01:28:53.221Z,2.65
2017-05-15T01:31:19.843Z,2.90
2017-05-15T01:33:46.464Z,2.58
2017-05-15T01:36:13.104Z,2.20
2017-05-15T01:38:39.747Z,2.43
2017-05-15T01:41:06.364Z,2.00
2017-05-15T01:43:32.980Z,1.90
2017-05-15T01:45:59.614Z,2.27
2017-05-15T01:48:26.240Z,2.02
2017-05-15T01:50:52.876Z,1.98
2017-05-15T01:53:19.493Z,1.75
2017-05-15T01:55:46.111Z,1.90
2017-05-15T01:58:12.745Z,2.12
2017-05-15T02:00:39.384Z,2.52
2017-05-15T02:03:06.018Z,2.23
2017-05-15T02:05:32.648Z,3.07
2017-05-15T02:07:59.284Z,2.40
2017-05-15T02:10:26.169Z,2.22
2017-05-15T02:12:52.783Z,2.30
2017-05-15T02:15:19.395Z,2.43
2017-05-15T02:17:46.033Z,1.70
2017-05-15T02:20:12.674Z,2.03
2017-05-15T02:22:39.295Z,2.27
2017-05-15T02:25:05.936Z,2.13
2017-05-15T02:27:32.561Z,2.40
2017-05-15T02:29:59.168Z,2.02
2017-05-15T02:32:25.828Z,1.80
2017-05-15T02:34:52.464Z,1.83
2017-05-15T02:37:19.124Z,2.17
2017-05-15T02:39:45.743Z,2.33
2017-05-15T02:42:12.356Z,1.73
2017-05-15T02:44:38.993Z,3.03
2017-05-15T02:47:05.629Z,1.77
2017-05-15T02:49:32.253Z,1.73
2017-05-15T02:51:58.872Z,3.35
2017-05-15T02:54:25.504Z,2.42
2017-05-15T02:56:52.148Z,1.73
2017-05-15T02:59:18.763Z,2.98
2017-05-15T03:01:45.400Z,2.37
2017-05-15T03:04:12.012Z,2.07
2017-05-15T03:06:38.657Z,1.95
2017-05-15T03:09:05.295Z,2.00
2017-05-15T03:11:31.933Z,1.98
2017-05-15T03:13:58.549Z,2.15
2017-05-15T03:16:25.200Z,1.50
2017-05-15T03:18:51.817Z,1.73
2017-05-15T03:21:18.453Z,1.53
2017-05-15T03:23:45.122Z,2.23
2017-05-15T03:26:11.736Z,2.33
2017-05-15T03:28:38.371Z,2.18
2017-05-15T03:31:05.004Z,2.15
2017-05-15T03:33:31.612Z,2.67
2017-05-15T03:35:58.252Z,2.80
2017-05-15T03:38:24.888Z,2.35
2017-05-15T03:40:51.500Z,2.13
2017-05-15T03:43:18.131Z,1.90
2017-05-15T03:45:44.754Z,2.38
2017-05-15T03:48:11.380Z,1.63
2017-05-15T03:50:37.992Z,1.95
2017-05-15T03:53:04.732Z,2.15
2017-05-15T03:55:31.364Z,2.15
2017-05-15T03:57:57.985Z,1.70
2017-05-15T04:00:24.612Z,2.00
2017-05-15T04:02:51.224Z,1.82
2017-05-15T04:05:17.856Z,2.03
2017-05-15T04:07:44.539Z,1.70
2017-05-15T04:10:11.175Z,2.47
2017-05-15T04:12:37.792Z,2.80
2017-05-15T04:15:04.413Z,2.07
2017-05-15T04:17:31.060Z,2.20
2017-05-15T04:19:58.521Z,2.10
2017-05-15T04:22:25.149Z,2.45
2017-05-15T04:24:51.780Z,3.00
2017-05-15T04:27:18.396Z,2.40
2017-05-15T04:29:45.036Z,3.18
2017-05-15T04:32:11.673Z,2.60
2017-05-15T04:34:38.295Z,2.35
2017-05-15T04:37:04.923Z,2.95
2017-05-15T04:39:31.544Z,3.35
2017-05-15T04:41:58.179Z,3.28
2017-05-15T04:44:24.797Z,3.03
2017-05-15T04:46:51.436Z,3.47
2017-05-15T04:49:18.055Z,2.40
2017-05-15T04:51:44.686Z,3.17
2017-05-15T04:54:11.317Z,3.18
2017-05-15T04:56:37.940Z,2.78
2017-05-15T04:59:04.584Z,2.75
2017-05-15T05:01:31.203Z,2.93
2017-05-15T05:03:57.816Z,3.13
2017-05-15T05:06:24.448Z,2.55
2017-05-15T05:08:51.085Z,2.83
2017-05-15T05:11:18.356Z,3.10
2017-05-15T05:13:44.968Z,2.50
2017-05-15T05:16:11.598Z,2.48
2017-05-15T05:18:38.203Z,3.08
2017-05-15T05:21:10.775Z,4.23
2017-05-15T05:23:55.253Z,2.92
2017-05-15T05:26:27.721Z,3.48
2017-05-15T05:29:00.180Z,3.03
2017-05-15T05:31:31.595Z,2.53
2017-05-15T05:34:03.091Z,2.60
2017-05-15T05:36:35.695Z,2.90
2017-05-15T05:39:04.153Z,3.05
2017-05-15T05:41:33.704Z,3.08
2017-05-15T05:44:04.541Z,3.23
2017-05-15T05:46:31.167Z,3.30
2017-05-15T05:48:57.783Z,2.63
2017-05-15T05:51:24.427Z,2.32
2017-05-15T05:53:51.053Z,2.37
2017-05-15T05:56:23.531Z,2.78
2017-05-15T05:58:50.160Z,2.28
2017-05-15T06:01:22.772Z,2.55
2017-05-15T06:03:55.336Z,2.18
2017-05-15T06:06:28.016Z,1.90
2017-05-15T06:09:00.520Z,1.68
2017-05-15T06:11:33.083Z,2.08
2017-05-15T06:14:05.554Z,1.60
2017-05-15T06:16:38.008Z,1.87
2017-05-15T06:19:04.407Z,2.28
2017-05-15T06:21:30.785Z,2.10
2017-05-15T06:24:03.404Z,2.20
2017-05-15T06:26:35.896Z,2.48
2017-05-15T06:29:02.540Z,1.88
2017-05-15T06:31:29.163Z,2.15
2017-05-15T06:33:55.819Z,2.40
2017-05-15T06:36:22.447Z,2.48
2017-05-15T06:38:54.981Z,2.50
2017-05-15T06:41:27.452Z,2.18
2017-05-15T06:43:54.083Z,1.60
2017-05-15T06:46:20.704Z,1.10
2017-05-15T06:48:47.352Z,1.00
2017-05-15T06:51:13.965Z,0.96
2017-05-15T06:53:40.584Z,1.04
2017-05-15T06:56:07.219Z,0.80
2017-05-15T06:58:33.836Z,0.80
2017-05-15T07:01:00.449Z,1.00
2017-05-15T07:03:27.084Z,1.26
2017-05-15T07:05:53.695Z,0.90
2017-05-15T07:08:20.108Z,1.06
2017-05-15T07:10:46.732Z,1.18
2017-05-15T07:13:13.344Z,1.10
2017-05-15T07:15:39.996Z,1.00
2017-05-15T07:18:06.615Z,1.00
2017-05-15T07:20:33.226Z,1.04
2017-05-15T07:22:59.859Z,1.04
2017-05-15T07:25:26.480Z,0.86
2017-05-15T07:27:53.093Z,1.20
2017-05-15T07:30:19.719Z,1.04
2017-05-15T07:32:46.345Z,1.00
2017-05-15T07:35:12.964Z,0.90
2017-05-15T07:37:39.596Z,0.98
2017-05-15T07:40:06.211Z,1.30
2017-05-15T07:42:32.860Z,1.30
2017-05-15T07:44:59.467Z,1.00
2017-05-15T07:47:26.101Z,1.22
2017-05-15T07:49:52.727Z,1.10
2017-05-15T07:52:19.348Z,1.02
2017-05-15T07:54:45.980Z,1.00
2017-05-15T07:57:12.592Z,1.10
2017-05-15T07:59:39.226Z,1.10
2017-05-15T08:02:05.841Z,0.90
2017-05-15T08:04:32.452Z,1.10
2017-05-15T08:06:59.080Z,1.28
2017-05-15T08:09:25.705Z,1.10
2017-05-15T08:11:52.340Z,1.08
2017-05-15T08:14:18.957Z,1.18
2017-05-15T08:16:45.604Z,1.10
2017-05-15T08:19:12.233Z,0.92
2017-05-15T08:21:38.851Z,1.02
2017-05-15T08:24:05.484Z,1.00
2017-05-15T08:26:32.100Z,1.30
2017-05-15T08:28:58.716Z,0.90
2017-05-15T08:31:25.355Z,1.10
2017-05-15T08:33:51.989Z,1.34
2017-05-15T08:36:18.627Z,1.00
2017-05-15T08:38:45.249Z,1.00
2017-05-15T08:41:11.892Z,0.92
2017-05-15T08:43:38.523Z,1.12
2017-05-15T08:46:05.131Z,1.18
2017-05-15T08:48:31.758Z,1.08
2017-05-15T08:50:58.688Z,1.00
2017-05-15T08:53:25.327Z,1.20
2017-05-15T08:55:51.957Z,1.94
2017-05-15T08:58:18.580Z,1.88
2017-05-15T09:00:45.217Z,1.26
2017-05-15T09:03:11.829Z,1.00
2017-05-15T09:05:38.435Z,1.06
2017-05-15T09:08:05.063Z,1.42
2017-05-15T09:10:31.679Z,1.20
2017-05-15T09:12:58.313Z,1.30
2017-05-15T09:15:24.932Z,0.86
2017-05-15T09:17:51.539Z,0.96
2017-05-15T09:20:18.176Z,1.00
2017-05-15T09:22:44.898Z,1.10
2017-05-15T09:25:11.504Z,1.34
2017-05-15T09:27:38.128Z,1.10
2017-05-15T09:30:04.741Z,1.18
2017-05-15T09:32:31.375Z,1.00
2017-05-15T09:34:57.988Z,0.98
2017-05-15T09:37:24.624Z,1.04
2017-05-15T09:39:51.256Z,1.00
2017-05-15T09:42:17.891Z,1.04
2017-05-15T09:44:44.504Z,1.22
2017-05-15T09:47:11.149Z,1.00
2017-05-15T09:49:37.770Z,1.06
2017-05-15T09:52:04.400Z,1.28
2017-05-15T09:54:31.028Z,1.12
2017-05-15T09:56:57.656Z,1.00
2017-05-15T09:59:24.297Z,1.12
2017-05-15T10:01:50.907Z,0.88
2017-05-15T10:04:17.544Z,1.00
2017-05-15T10:06:44.181Z,1.50
2017-05-15T10:09:10.791Z,0.90
2017-05-15T10:11:37.489Z,1.42
2017-05-15T10:14:04.101Z,1.06
2017-05-15T10:16:30.743Z,1.08
2017-05-15T10:18:57.375Z,1.14
2017-05-15T10:21:23.988Z,1.00
2017-05-15T10:23:50.644Z,1.04
2017-05-15T10:26:17.267Z,0.90
2017-05-15T10:28:43.973Z,1.24
2017-05-15T10:31:10.581Z,1.16
2017-05-15T10:33:37.191Z,1.00
2017-05-15T10:36:03.832Z,1.10
2017-05-15T10:38:30.440Z,1.58
2017-05-15T10:40:57.053Z,1.46
2017-05-15T10:43:23.688Z,1.32
2017-05-15T10:45:50.308Z,1.00
2017-05-15T10:48:16.947Z,1.14
2017-05-15T10:50:43.564Z,1.74
2017-05-15T10:53:10.207Z,1.20
2017-05-15T10:55:36.828Z,1.20
2017-05-15T10:58:03.443Z,0.94
2017-05-15T11:00:30.080Z,1.08
2017-05-15T11:02:56.703Z,1.06
2017-05-15T11:05:23.323Z,1.10
2017-05-15T11:07:49.956Z,1.10
2017-05-15T11:10:16.567Z,1.10
2017-05-15T11:12:43.204Z,0.98
2017-05-15T11:15:09.820Z,1.52
2017-05-15T11:17:36.456Z,1.00
2017-05-15T11:20:03.077Z,0.90
2017-05-15T11:22:29.721Z,1.08
2017-05-15T11:24:56.392Z,1.00
2017-05-15T11:27:23.016Z,1.06
2017-05-15T11:29:49.652Z,1.20
2017-05-15T11:32:16.269Z,1.00
2017-05-15T11:34:42.887Z,1.00
2017-05-15T11:37:09.520Z,1.00
2017-05-15T11:39:36.188Z,1.20
2017-05-15T11:42:02.854Z,1.24
2017-05-15T11:44:29.444Z,1.10
2017-05-15T11:46:56.080Z,1.38
2017-05-15T11:49:22.716Z,1.06
2017-05-15T11:51:49.391Z,1.10
2017-05-15T11:54:16.021Z,1.26
2017-05-15T11:56:42.669Z,1.50
2017-05-15T11:59:09.303Z,1.10
2017-05-15T12:01:35.989Z,1.06
2017-05-15T12:04:02.621Z,1.40
2017-05-15T12:06:29.251Z,1.62
2017-05-15T12:08:55.893Z,1.10
2017-05-15T12:11:22.515Z,1.24
2017-05-15T12:13:49.136Z,1.68
2017-05-15T12:16:15.772Z,1.00
2017-05-15T12:18:42.394Z,1.20
2017-05-15T12:21:09.031Z,1.12
2017-05-15T12:23:35.648Z,1.16
2017-05-15T12:26:02.270Z,1.08
2017-05-15T12:28:28.896Z,1.10
2017-05-15T12:30:55.515Z,1.50
2017-05-15T12:33:22.159Z,1.14
2017-05-15T12:35:48.773Z,1.20
2017-05-15T12:38:15.400Z,1.30
2017-05-15T12:40:42.035Z,1.52
2017-05-15T12:43:08.649Z,1.44
2017-05-15T12:45:35.301Z,1.60
2017-05-15T12:48:01.937Z,1.32
2017-05-15T12:50:28.560Z,1.30
2017-05-15T12:52:55.200Z,1.32
2017-05-15T12:55:21.816Z,1.20
2017-05-15T12:57:48.433Z,1.50
2017-05-15T13:00:15.076Z,1.50
2017-05-15T13:02:41.696Z,1.42
2017-05-15T13:05:08.336Z,1.34
2017-05-15T13:07:35.041Z,1.32
2017-05-15T13:10:01.659Z,1.30
2017-05-15T13:12:28.304Z,1.30
2017-05-15T13:14:54.926Z,1.50
2017-05-15T13:17:21.560Z,1.48
2017-05-15T13:19:48.175Z,1.60
2017-05-15T13:22:14.785Z,1.36
2017-05-15T13:24:41.433Z,1.40
2017-05-15T13:27:08.052Z,1.44
2017-05-15T13:29:34.668Z,1.40
2017-05-15T13:32:01.304Z,1.30
2017-05-15T13:34:27.927Z,1.38
2017-05-15T13:36:54.555Z,1.24
2017-05-15T13:39:21.168Z,1.50
2017-05-15T13:41:47.809Z,1.40
2017-05-15T13:44:14.429Z,1.18
2017-05-15T13:46:41.041Z,1.30
2017-05-15T13:49:07.671Z,1.20
2017-05-15T13:51:34.287Z,1.34
2017-05-15T13:54:00.924Z,1.02
2017-05-15T13:56:27.536Z,1.28
2017-05-15T13:58:54.176Z,1.20
2017-05-15T14:01:21.619Z,5.50
2017-05-15T14:03:48.264Z,1.74
2017-05-15T14:06:15.174Z,1.30
2017-05-15T14:08:41.784Z,1.00
2017-05-15T14:11:08.412Z,1.20
2017-05-15T14:13:35.025Z,1.38
2017-05-15T14:16:01.675Z,1.40
2017-05-15T14:18:28.295Z,1.24
2017-05-15T14:20:54.909Z,1.10
2017-05-15T14:23:21.565Z,1.20
2017-05-15T14:25:48.195Z,1.38
2017-05-15T14:28:14.827Z,1.04
2017-05-15T14:30:41.439Z,1.10
2017-05-15T14:33:08.084Z,1.00
2017-05-15T14:35:34.731Z,1.10
2017-05-15T14:38:01.345Z,1.40
2017-05-15T14:40:27.971Z,1.10
2017-05-15T14:42:54.624Z,1.00
2017-05-15T14:45:21.252Z,1.10
2017-05-15T14:47:47.872Z,1.20
2017-05-15T14:50:14.504Z,1.12
2017-05-15T14:52:41.121Z,1.08
2017-05-15T14:55:07.733Z,1.14
2017-05-15T14:57:34.348Z,0.80
2017-05-15T15:00:01.010Z,1.14
2017-05-15T15:02:27.623Z,1.16
2017-05-15T15:04:54.261Z,1.32
2017-05-15T15:07:20.892Z,1.08
2017-05-15T15:09:47.536Z,0.84
2017-05-15T15:12:14.174Z,0.92
2017-05-15T15:14:40.789Z,1.28
2017-05-15T15:17:07.416Z,1.00
2017-05-15T15:19:34.051Z,1.04
2017-05-15T15:22:00.665Z,1.10
2017-05-15T15:24:27.284Z,0.90
2017-05-15T15:26:53.928Z,1.00
2017-05-15T15:29:20.552Z,1.00
2017-05-15T15:31:47.199Z,1.20
2017-05-15T15:34:13.836Z,1.30
2017-05-15T15:36:40.468Z,1.16
2017-05-15T15:39:07.107Z,1.00
2017-05-15T15:41:33.724Z,1.10
2017-05-15T15:44:00.374Z,1.16
2017-05-15T15:46:26.987Z,1.10
2017-05-15T15:48:53.605Z,1.20
2017-05-15T15:51:20.236Z,1.20
2017-05-15T15:53:46.856Z,1.00
2017-05-15T15:56:13.493Z,1.10
2017-05-15T15:58:40.108Z,1.30
2017-05-15T16:01:06.724Z,2.06
2017-05-15T16:03:33.364Z,1.36
2017-05-15T16:06:00.016Z,1.00
2017-05-15T16:08:26.632Z,1.30
2017-05-15T16:13:26.396Z,1.78
2017-05-15T16:15:53.030Z,4.74
2017-05-15T16:18:21.502Z,1.20
2017-05-15T16:20:48.150Z,1.30
2017-05-15T16:23:14.765Z,1.28
2017-05-15T16:25:41.407Z,1.42
2017-05-15T16:28:08.036Z,1.30
2017-05-15T16:30:34.679Z,1.30
2017-05-15T16:33:01.300Z,0.98
2017-05-15T16:35:27.914Z,1.52
2017-05-15T16:37:54.544Z,1.40
2017-05-15T16:40:21.160Z,1.28
2017-05-15T16:42:47.799Z,1.30
2017-05-15T16:45:14.423Z,1.66
2017-05-15T16:47:41.047Z,1.42
2017-05-15T16:50:07.691Z,1.44
2017-05-15T16:52:34.312Z,1.30
2017-05-15T16:55:00.968Z,1.22
2017-05-15T16:57:27.596Z,1.40
2017-05-15T16:59:54.215Z,1.30
2017-05-15T17:02:20.873Z,15.70
2017-05-15T17:04:47.495Z,3.76
2017-05-15T17:07:15.277Z,1.36
2017-05-15T17:09:41.901Z,1.18
2017-05-15T17:12:08.515Z,1.30
2017-05-15T17:14:35.155Z,1.22
2017-05-15T17:17:01.767Z,1.30
2017-05-15T17:19:28.415Z,1.20
2017-05-15T17:21:55.033Z,1.06
2017-05-15T17:24:21.655Z,1.20
2017-05-15T17:26:48.288Z,1.14
2017-05-15T17:29:15.013Z,1.32
2017-05-15T17:31:41.760Z,1.36
2017-05-15T17:34:08.754Z,1.08
2017-05-15T17:36:35.808Z,1.24
2017-05-15T17:39:02.850Z,1.10
2017-05-15T17:41:29.900Z,1.10
2017-05-15T17:43:57.052Z,1.12
2017-05-15T17:46:24.100Z,2.32
2017-05-15T17:48:51.661Z,1.04
2017-05-15T17:51:18.723Z,1.20
2017-05-15T17:53:45.863Z,1.38
2017-05-15T17:56:13.013Z,1.64
2017-05-15T17:58:40.171Z,1.20
2017-05-15T18:01:07.316Z,1.42
2017-05-15T18:03:34.373Z,1.40
2017-05-15T18:06:01.416Z,1.20
2017-05-15T18:08:28.564Z,1.40
2017-05-15T18:10:55.522Z,1.48
2017-05-15T18:13:22.560Z,1.40
2017-05-15T18:15:49.518Z,1.30
2017-05-15T18:18:16.761Z,1.24
2017-05-15T18:20:43.912Z,1.20
2017-05-15T18:23:11.064Z,1.02
2017-05-15T18:25:38.216Z,1.42
2017-05-15T18:28:05.365Z,1.10
2017-05-15T18:30:32.517Z,1.20
2017-05-15T18:32:59.566Z,1.30
2017-05-15T18:35:26.821Z,1.24
2017-05-15T18:37:53.870Z,1.26
2017-05-15T18:40:21.020Z,2.04
2017-05-15T18:42:48.175Z,1.48
2017-05-15T18:45:15.323Z,1.60
2017-05-15T18:47:42.386Z,1.70
2017-05-15T18:50:09.523Z,1.18
2017-05-15T18:52:36.582Z,1.50
2017-05-15T18:55:03.624Z,1.40
2017-05-15T18:57:30.669Z,1.56
2017-05-15T18:59:57.719Z,1.64
2017-05-15T19:02:24.770Z,1.42
2017-05-15T19:04:51.919Z,1.55
2017-05-15T19:07:18.969Z,1.10
2017-05-15T19:09:46.025Z,1.60
2017-05-15T19:12:13.168Z,1.38
2017-05-15T19:14:40.321Z,1.48
2017-05-15T19:17:07.472Z,1.53
2017-05-15T19:19:34.626Z,1.10
2017-05-15T19:22:01.569Z,1.35
2017-05-15T19:24:28.720Z,1.67
2017-05-15T19:26:55.874Z,1.32
2017-05-15T19:29:22.927Z,1.13
2017-05-15T19:31:50.071Z,1.25
2017-05-15T19:34:16.756Z,1.25
2017-05-15T19:36:43.400Z,1.30
2017-05-15T19:39:10.020Z,1.35
2017-05-15T19:41:36.665Z,1.05
2017-05-15T19:44:03.323Z,1.30
2017-05-15T19:46:29.967Z,1.27
2017-05-15T19:48:56.616Z,1.32
2017-05-15T19:51:23.260Z,1.30
2017-05-15T19:53:49.885Z,1.40
2017-05-15T19:56:16.551Z,1.35
2017-05-15T19:58:43.185Z,1.22
2017-05-15T20:01:09.862Z,1.48
2017-05-15T20:03:36.503Z,1.90
2017-05-15T20:06:03.128Z,1.87
2017-05-15T20:08:29.837Z,1.40
2017-05-15T20:10:56.460Z,1.48
2017-05-15T20:13:23.117Z,1.40
2017-05-15T20:15:49.767Z,1.72
2017-05-15T20:18:16.381Z,1.40
2017-05-15T20:20:43.031Z,2.05
2017-05-15T20:23:09.652Z,1.55
2017-05-15T20:25:36.317Z,1.40
2017-05-15T20:28:02.951Z,1.52
2017-05-15T20:30:29.585Z,1.73
2017-05-15T20:32:56.231Z,1.80
2017-05-15T20:35:22.853Z,2.00
2017-05-15T20:37:49.504Z,1.70
2017-05-15T20:40:16.145Z,2.15
2017-05-15T20:42:42.772Z,2.35
2017-05-15T20:45:09.437Z,2.53
2017-05-15T20:47:36.059Z,3.95
2017-05-15T20:50:02.684Z,3.53
2017-05-15T20:52:29.333Z,2.70
2017-05-15T20:54:56.271Z,2.10
2017-05-15T20:57:34.158Z,2.20
2017-05-15T21:00:00.865Z,2.08
2017-05-15T21:02:27.485Z,2.45
2017-05-15T21:04:54.123Z,3.57
2017-05-15T21:07:20.746Z,2.67
2017-05-15T21:09:47.393Z,3.23
2017-05-15T21:12:14.003Z,2.20
2017-05-15T21:14:40.644Z,2.85
2017-05-15T21:17:07.291Z,2.57
2017-05-15T21:19:35.073Z,2.52
2017-05-15T21:22:01.891Z,2.53
2017-05-15T21:24:28.623Z,2.82
2017-05-15T21:26:55.426Z,2.13
2017-05-15T21:29:22.042Z,2.75
2017-05-15T21:31:48.679Z,2.33
2017-05-15T21:34:15.319Z,2.30
2017-05-15T21:36:41.960Z,2.52
2017-05-15T21:39:08.599Z,1.82
2017-05-15T21:41:35.220Z,2.55
2017-05-15T21:44:01.863Z,2.82
2017-05-15T21:46:28.494Z,3.02
2017-05-15T21:48:55.137Z,2.12
2017-05-15T21:51:21.759Z,3.10
2017-05-15T21:53:48.413Z,2.60
2017-05-15T21:56:15.032Z,2.70
2017-05-15T21:58:41.649Z,3.97
2017-05-15T22:01:08.303Z,2.72
2017-05-15T22:03:34.928Z,2.95
2017-05-15T22:06:01.569Z,2.93
2017-05-15T22:08:28.204Z,3.47
2017-05-15T22:10:54.820Z,3.47
2017-05-15T22:13:21.457Z,3.75
2017-05-15T22:15:48.109Z,3.87
2017-05-15T22:18:14.732Z,3.72
2017-05-15T22:20:41.365Z,3.80
2017-05-15T22:23:07.976Z,3.35
2017-05-15T22:25:34.611Z,3.83
2017-05-15T22:28:01.229Z,4.60
2017-05-15T22:30:27.882Z,4.07
2017-05-15T22:32:54.532Z,3.52
2017-05-15T22:35:21.139Z,3.15
2017-05-15T22:37:47.760Z,3.53
2017-05-15T22:40:14.399Z,3.43
2017-05-15T22:42:41.021Z,4.22
2017-05-15T22:45:07.675Z,3.72
2017-05-15T22:47:34.328Z,3.30
2017-05-15T22:50:00.944Z,3.97
2017-05-15T22:52:27.608Z,4.38
2017-05-15T22:54:54.237Z,3.13
2017-05-15T22:57:20.874Z,4.13
2017-05-15T22:59:47.485Z,3.72
2017-05-15T23:02:14.109Z,4.18
2017-05-15T23:04:40.744Z,4.08
2017-05-15T23:07:07.367Z,3.38
2017-05-15T23:09:34.023Z,3.43
2017-05-15T23:12:00.657Z,3.12
2017-05-15T23:14:27.288Z,3.55
2017-05-15T23:16:53.929Z,4.07
2017-05-15T23:19:20.544Z,3.30
2017-05-15T23:21:47.173Z,4.03
2017-05-15T23:24:13.785Z,3.88
2017-05-15T23:26:40.400Z,4.60
2017-05-15T23:29:07.033Z,3.33
2017-05-15T23:31:33.659Z,3.97
2017-05-15T23:34:00.305Z,4.35
2017-05-15T23:36:26.924Z,4.63
2017-05-15T23:38:53.577Z,4.28
2017-05-15T23:41:20.202Z,4.18
2017-05-15T23:43:46.815Z,3.88
2017-05-15T23:46:13.457Z,4.02
2017-05-15T23:48:40.067Z,3.60
2017-05-15T23:51:06.708Z,3.70
2017-05-15T23:53:33.328Z,3.57
2017-05-15T23:55:59.936Z,4.13
2017-05-15T23:58:26.576Z,4.13
